sensor_id;sensor_type;location;lat;lon;timestamp;pressure;altitude;pressure_sealevel;temperature;humidity
60920;BME280;59039;52.108;19.942;2022-11-20T00:00:54;100459.63;;;-2.41;69.59
60920;BME280;59039;52.108;19.942;2022-11-20T00:03:19;100465.12;;;-2.33;69.85
60920;BME280;59039;52.108;19.942;2022-11-20T00:05:45;100459.58;;;-2.25;70.06
60920;BME280;59039;52.108;19.942;2022-11-20T00:08:10;100454.60;;;-2.13;70.33
60920;BME280;59039;52.108;19.942;2022-11-20T00:10:37;100459.27;;;-2.03;70.40
60920;BME280;59039;52.108;19.942;2022-11-20T00:13:03;100458.75;;;-1.96;70.12
60920;BME280;59039;52.108;19.942;2022-11-20T00:15:29;100452.95;;;-1.86;70.16
60920;BME280;59039;52.108;19.942;2022-11-20T00:17:54;100454.34;;;-1.79;70.17
60920;BME280;59039;52.108;19.942;2022-11-20T00:20:19;100459.77;;;-1.70;70.02
60920;BME280;59039;52.108;19.942;2022-11-20T00:22:44;100462.11;;;-1.60;69.87
60920;BME280;59039;52.108;19.942;2022-11-20T00:25:09;100460.65;;;-1.48;69.42
60920;BME280;59039;52.108;19.942;2022-11-20T00:27:34;100461.95;;;-1.39;69.16
60920;BME280;59039;52.108;19.942;2022-11-20T00:30:00;100463.54;;;-1.32;68.58
60920;BME280;59039;52.108;19.942;2022-11-20T00:32:25;100458.38;;;-1.24;68.09
60920;BME280;59039;52.108;19.942;2022-11-20T00:34:50;100457.99;;;-1.20;67.64
60920;BME280;59039;52.108;19.942;2022-11-20T00:37:15;100460.89;;;-1.18;67.32
60920;BME280;59039;52.108;19.942;2022-11-20T00:39:41;100459.14;;;-1.19;67.03
60920;BME280;59039;52.108;19.942;2022-11-20T00:42:06;100459.11;;;-1.21;67.13
60920;BME280;59039;52.108;19.942;2022-11-20T00:44:31;100456.13;;;-1.26;66.31
60920;BME280;59039;52.108;19.942;2022-11-20T00:46:56;100450.67;;;-1.30;66.40
60920;BME280;59039;52.108;19.942;2022-11-20T00:49:21;100450.46;;;-1.33;66.28
60920;BME280;59039;52.108;19.942;2022-11-20T00:51:46;100452.74;;;-1.36;66.17
60920;BME280;59039;52.108;19.942;2022-11-20T00:54:12;100454.37;;;-1.40;66.53
60920;BME280;59039;52.108;19.942;2022-11-20T00:56:37;100451.19;;;-1.44;66.13
60920;BME280;59039;52.108;19.942;2022-11-20T00:59:02;100448.33;;;-1.47;66.09
60920;BME280;59039;52.108;19.942;2022-11-20T01:01:27;100449.33;;;-1.50;66.00
60920;BME280;59039;52.108;19.942;2022-11-20T01:03:55;100448.34;;;-1.51;66.18
60920;BME280;59039;52.108;19.942;2022-11-20T01:06:26;100447.02;;;-1.53;66.02
60920;BME280;59039;52.108;19.942;2022-11-20T01:08:54;100448.06;;;-1.53;66.02
60920;BME280;59039;52.108;19.942;2022-11-20T01:11:31;100446.73;;;-1.54;66.34
60920;BME280;59039;52.108;19.942;2022-11-20T01:13:58;100447.88;;;-1.56;66.18
60920;BME280;59039;52.108;19.942;2022-11-20T01:16:27;100448.09;;;-1.56;66.09
60920;BME280;59039;52.108;19.942;2022-11-20T01:18:55;100442.80;;;-1.58;66.24
60920;BME280;59039;52.108;19.942;2022-11-20T01:21:25;100442.13;;;-1.58;66.66
60920;BME280;59039;52.108;19.942;2022-11-20T01:23:51;100440.80;;;-1.60;66.49
60920;BME280;59039;52.108;19.942;2022-11-20T01:26:19;100441.70;;;-1.60;66.29
60920;BME280;59039;52.108;19.942;2022-11-20T01:28:45;100436.20;;;-1.60;66.22
60920;BME280;59039;52.108;19.942;2022-11-20T01:33:37;100440.53;;;-1.58;66.41
60920;BME280;59039;52.108;19.942;2022-11-20T01:36:04;100434.88;;;-1.59;66.47
60920;BME280;59039;52.108;19.942;2022-11-20T01:38:29;100439.83;;;-1.58;66.33
60920;BME280;59039;52.108;19.942;2022-11-20T01:40:55;100438.05;;;-1.58;66.28
60920;BME280;59039;52.108;19.942;2022-11-20T01:43:21;100439.38;;;-1.57;66.35
60920;BME280;59039;52.108;19.942;2022-11-20T01:45:56;100441.13;;;-1.56;66.43
60920;BME280;59039;52.108;19.942;2022-11-20T01:48:22;100438.40;;;-1.55;66.60
60920;BME280;59039;52.108;19.942;2022-11-20T01:50:49;100437.35;;;-1.55;66.78
60920;BME280;59039;52.108;19.942;2022-11-20T01:53:18;100435.98;;;-1.56;66.86
60920;BME280;59039;52.108;19.942;2022-11-20T01:55:52;100433.05;;;-1.58;66.95
60920;BME280;59039;52.108;19.942;2022-11-20T01:58:21;100435.80;;;-1.59;67.02
60920;BME280;59039;52.108;19.942;2022-11-20T02:00:48;100432.36;;;-1.62;67.10
60920;BME280;59039;52.108;19.942;2022-11-20T02:03:16;100434.17;;;-1.62;67.03
60920;BME280;59039;52.108;19.942;2022-11-20T02:06:03;100433.33;;;-1.63;67.19
60920;BME280;59039;52.108;19.942;2022-11-20T02:08:30;100429.55;;;-1.66;67.32
60920;BME280;59039;52.108;19.942;2022-11-20T02:10:55;100427.64;;;-1.67;67.40
60920;BME280;59039;52.108;19.942;2022-11-20T02:13:20;100426.12;;;-1.69;67.50
60920;BME280;59039;52.108;19.942;2022-11-20T02:15:46;100424.27;;;-1.71;67.61
60920;BME280;59039;52.108;19.942;2022-11-20T02:18:14;100422.82;;;-1.74;67.75
60920;BME280;59039;52.108;19.942;2022-11-20T02:20:45;100420.14;;;-1.77;67.78
60920;BME280;59039;52.108;19.942;2022-11-20T02:23:16;100418.46;;;-1.79;67.88
60920;BME280;59039;52.108;19.942;2022-11-20T02:25:46;100416.79;;;-1.81;67.95
60920;BME280;59039;52.108;19.942;2022-11-20T02:28:12;100421.70;;;-1.83;68.04
60920;BME280;59039;52.108;19.942;2022-11-20T02:30:38;100426.77;;;-1.85;68.11
60920;BME280;59039;52.108;19.942;2022-11-20T02:33:03;100425.17;;;-1.85;68.20
60920;BME280;59039;52.108;19.942;2022-11-20T02:37:56;100421.80;;;-1.89;68.34
60920;BME280;59039;52.108;19.942;2022-11-20T02:40:22;100418.08;;;-1.89;68.32
60920;BME280;59039;52.108;19.942;2022-11-20T02:42:48;100411.59;;;-1.91;68.37
60920;BME280;59039;52.108;19.942;2022-11-20T02:45:16;100411.45;;;-1.91;68.58
60920;BME280;59039;52.108;19.942;2022-11-20T02:47:41;100412.96;;;-1.90;68.59
60920;BME280;59039;52.108;19.942;2022-11-20T02:50:07;100411.94;;;-1.91;68.71
60920;BME280;59039;52.108;19.942;2022-11-20T02:52:32;100411.11;;;-1.88;68.81
60920;BME280;59039;52.108;19.942;2022-11-20T02:54:57;100411.39;;;-1.86;68.83
60920;BME280;59039;52.108;19.942;2022-11-20T02:57:22;100410.55;;;-1.84;68.97
60920;BME280;59039;52.108;19.942;2022-11-20T02:59:48;100405.96;;;-1.81;68.98
60920;BME280;59039;52.108;19.942;2022-11-20T03:02:13;100405.51;;;-1.79;68.92
60920;BME280;59039;52.108;19.942;2022-11-20T03:04:38;100402.67;;;-1.75;68.99
60920;BME280;59039;52.108;19.942;2022-11-20T03:07:03;100402.69;;;-1.73;68.92
60920;BME280;59039;52.108;19.942;2022-11-20T03:09:29;100404.92;;;-1.71;68.91
60920;BME280;59039;52.108;19.942;2022-11-20T03:11:54;100402.55;;;-1.70;68.98
60920;BME280;59039;52.108;19.942;2022-11-20T03:14:19;100398.73;;;-1.68;69.00
60920;BME280;59039;52.108;19.942;2022-11-20T03:16:44;100400.87;;;-1.64;68.95
60920;BME280;59039;52.108;19.942;2022-11-20T03:19:11;100404.65;;;-1.62;68.97
60920;BME280;59039;52.108;19.942;2022-11-20T03:21:36;100405.98;;;-1.60;68.91
60920;BME280;59039;52.108;19.942;2022-11-20T03:24:02;100406.80;;;-1.59;68.94
60920;BME280;59039;52.108;19.942;2022-11-20T03:26:27;100406.11;;;-1.59;68.84
60920;BME280;59039;52.108;19.942;2022-11-20T03:28:55;100407.48;;;-1.58;68.85
60920;BME280;59039;52.108;19.942;2022-11-20T03:31:23;100409.80;;;-1.58;68.81
60920;BME280;59039;52.108;19.942;2022-11-20T03:33:49;100409.27;;;-1.58;68.81
60920;BME280;59039;52.108;19.942;2022-11-20T03:36:15;100406.74;;;-1.58;68.85
60920;BME280;59039;52.108;19.942;2022-11-20T03:38:41;100404.59;;;-1.57;68.75
60920;BME280;59039;52.108;19.942;2022-11-20T03:41:12;100406.52;;;-1.57;68.77
60920;BME280;59039;52.108;19.942;2022-11-20T03:43:38;100412.35;;;-1.56;68.69
60920;BME280;59039;52.108;19.942;2022-11-20T03:46:04;100411.29;;;-1.56;68.69
60920;BME280;59039;52.108;19.942;2022-11-20T03:48:31;100410.17;;;-1.55;68.62
60920;BME280;59039;52.108;19.942;2022-11-20T03:51:27;100410.69;;;-1.55;68.63
60920;BME280;59039;52.108;19.942;2022-11-20T03:53:54;100409.11;;;-1.55;68.72
60920;BME280;59039;52.108;19.942;2022-11-20T03:56:23;100408.98;;;-1.56;68.70
60920;BME280;59039;52.108;19.942;2022-11-20T03:58:48;100406.67;;;-1.56;68.66
60920;BME280;59039;52.108;19.942;2022-11-20T04:01:24;100402.77;;;-1.56;68.70
60920;BME280;59039;52.108;19.942;2022-11-20T04:03:52;100402.38;;;-1.59;68.67
60920;BME280;59039;52.108;19.942;2022-11-20T04:06:20;100403.33;;;-1.60;68.73
60920;BME280;59039;52.108;19.942;2022-11-20T04:08:45;100402.87;;;-1.62;68.67
60920;BME280;59039;52.108;19.942;2022-11-20T04:13:38;100394.27;;;-1.71;68.77
60920;BME280;59039;52.108;19.942;2022-11-20T04:16:05;100397.38;;;-1.77;68.80
60920;BME280;59039;52.108;19.942;2022-11-20T04:18:31;100395.98;;;-1.80;68.86
60920;BME280;59039;52.108;19.942;2022-11-20T04:20:57;100386.03;;;-1.84;68.83
60920;BME280;59039;52.108;19.942;2022-11-20T04:23:22;100383.46;;;-1.85;68.84
60920;BME280;59039;52.108;19.942;2022-11-20T04:25:48;100385.72;;;-1.89;68.97
60920;BME280;59039;52.108;19.942;2022-11-20T04:28:13;100386.70;;;-1.90;69.00
60920;BME280;59039;52.108;19.942;2022-11-20T04:30:38;100382.62;;;-1.94;69.01
60920;BME280;59039;52.108;19.942;2022-11-20T04:33:03;100380.98;;;-2.00;69.02
60920;BME280;59039;52.108;19.942;2022-11-20T04:35:28;100382.80;;;-2.04;69.16
60920;BME280;59039;52.108;19.942;2022-11-20T04:37:53;100383.66;;;-2.08;69.09
60920;BME280;59039;52.108;19.942;2022-11-20T04:40:19;100384.67;;;-2.11;69.30
60920;BME280;59039;52.108;19.942;2022-11-20T04:42:44;100384.95;;;-2.08;69.26
60920;BME280;59039;52.108;19.942;2022-11-20T04:45:09;100387.33;;;-2.03;69.47
60920;BME280;59039;52.108;19.942;2022-11-20T04:47:34;100390.29;;;-1.98;69.83
60920;BME280;59039;52.108;19.942;2022-11-20T04:49:59;100391.91;;;-1.92;69.91
60920;BME280;59039;52.108;19.942;2022-11-20T04:52:25;100389.05;;;-1.84;69.96
60920;BME280;59039;52.108;19.942;2022-11-20T04:54:50;100384.61;;;-1.77;70.31
60920;BME280;59039;52.108;19.942;2022-11-20T04:57:15;100387.13;;;-1.70;70.29
60920;BME280;59039;52.108;19.942;2022-11-20T04:59:40;100385.11;;;-1.62;70.08
60920;BME280;59039;52.108;19.942;2022-11-20T05:02:06;100382.88;;;-1.53;70.20
60920;BME280;59039;52.108;19.942;2022-11-20T05:04:31;100384.16;;;-1.43;70.43
60920;BME280;59039;52.108;19.942;2022-11-20T05:06:56;100382.20;;;-1.40;70.44
60920;BME280;59039;52.108;19.942;2022-11-20T05:09:21;100386.04;;;-1.38;70.42
60920;BME280;59039;52.108;19.942;2022-11-20T05:11:46;100387.61;;;-1.35;70.25
60920;BME280;59039;52.108;19.942;2022-11-20T05:14:11;100385.84;;;-1.35;70.09
60920;BME280;59039;52.108;19.942;2022-11-20T05:16:37;100387.02;;;-1.40;69.91
60920;BME280;59039;52.108;19.942;2022-11-20T05:19:02;100382.70;;;-1.43;69.28
60920;BME280;59039;52.108;19.942;2022-11-20T05:21:30;100380.52;;;-1.45;68.99
60920;BME280;59039;52.108;19.942;2022-11-20T05:23:55;100378.89;;;-1.52;68.92
60920;BME280;59039;52.108;19.942;2022-11-20T05:26:21;100383.23;;;-1.63;68.75
60920;BME280;59039;52.108;19.942;2022-11-20T05:28:47;100385.91;;;-1.78;68.61
60920;BME280;59039;52.108;19.942;2022-11-20T05:31:18;100385.65;;;-1.90;68.58
60920;BME280;59039;52.108;19.942;2022-11-20T05:33:44;100387.70;;;-1.99;68.52
60920;BME280;59039;52.108;19.942;2022-11-20T05:36:10;100384.20;;;-2.08;68.63
60920;BME280;59039;52.108;19.942;2022-11-20T05:38:37;100385.63;;;-2.15;68.73
60920;BME280;59039;52.108;19.942;2022-11-20T05:41:14;100380.45;;;-2.22;68.75
60920;BME280;59039;52.108;19.942;2022-11-20T05:43:41;100375.43;;;-2.28;68.88
60920;BME280;59039;52.108;19.942;2022-11-20T05:46:09;100379.39;;;-2.37;69.01
60920;BME280;59039;52.108;19.942;2022-11-20T05:48:36;100379.98;;;-2.45;69.02
60920;BME280;59039;52.108;19.942;2022-11-20T05:51:02;100384.94;;;-2.57;69.23
60920;BME280;59039;52.108;19.942;2022-11-20T05:53:29;100386.23;;;-2.65;69.23
60920;BME280;59039;52.108;19.942;2022-11-20T05:56:03;100384.30;;;-2.73;69.36
60920;BME280;59039;52.108;19.942;2022-11-20T05:58:30;100383.21;;;-2.84;69.45
60920;BME280;59039;52.108;19.942;2022-11-20T06:01:13;100383.30;;;-2.94;69.61
60920;BME280;59039;52.108;19.942;2022-11-20T06:03:40;100386.64;;;-3.01;69.80
60920;BME280;59039;52.108;19.942;2022-11-20T06:06:06;100385.23;;;-3.09;69.86
60920;BME280;59039;52.108;19.942;2022-11-20T06:08:32;100382.45;;;-3.14;70.15
60920;BME280;59039;52.108;19.942;2022-11-20T06:10:57;100378.73;;;-3.19;70.19
60920;BME280;59039;52.108;19.942;2022-11-20T06:13:23;100380.50;;;-3.22;70.26
60920;BME280;59039;52.108;19.942;2022-11-20T06:15:52;100379.79;;;-3.26;70.10
60920;BME280;59039;52.108;19.942;2022-11-20T06:18:18;100382.33;;;-3.31;70.29
60920;BME280;59039;52.108;19.942;2022-11-20T06:20:44;100380.05;;;-3.36;70.44
60920;BME280;59039;52.108;19.942;2022-11-20T06:23:10;100375.63;;;-3.40;70.59
60920;BME280;59039;52.108;19.942;2022-11-20T06:25:42;100377.88;;;-3.43;70.69
60920;BME280;59039;52.108;19.942;2022-11-20T06:28:08;100378.17;;;-3.46;70.72
60920;BME280;59039;52.108;19.942;2022-11-20T06:30:34;100374.41;;;-3.49;70.53
60920;BME280;59039;52.108;19.942;2022-11-20T06:33:00;100374.77;;;-3.53;70.74
60920;BME280;59039;52.108;19.942;2022-11-20T06:35:25;100374.92;;;-3.57;70.89
60920;BME280;59039;52.108;19.942;2022-11-20T06:37:50;100375.75;;;-3.59;71.05
60920;BME280;59039;52.108;19.942;2022-11-20T06:40:15;100375.61;;;-3.60;71.18
60920;BME280;59039;52.108;19.942;2022-11-20T06:42:40;100377.01;;;-3.60;71.19
60920;BME280;59039;52.108;19.942;2022-11-20T06:45:06;100380.36;;;-3.60;71.26
60920;BME280;59039;52.108;19.942;2022-11-20T06:47:31;100375.97;;;-3.60;71.35
60920;BME280;59039;52.108;19.942;2022-11-20T06:49:57;100380.16;;;-3.59;71.26
60920;BME280;59039;52.108;19.942;2022-11-20T06:52:22;100380.50;;;-3.59;71.13
60920;BME280;59039;52.108;19.942;2022-11-20T06:54:47;100381.58;;;-3.55;71.24
60920;BME280;59039;52.108;19.942;2022-11-20T06:57:12;100382.27;;;-3.50;71.38
60920;BME280;59039;52.108;19.942;2022-11-20T06:59:37;100378.46;;;-3.44;71.52
60920;BME280;59039;52.108;19.942;2022-11-20T07:02:03;100378.85;;;-3.37;71.61
60920;BME280;59039;52.108;19.942;2022-11-20T07:04:28;100372.52;;;-3.29;71.76
60920;BME280;59039;52.108;19.942;2022-11-20T07:06:53;100368.39;;;-3.21;71.81
60920;BME280;59039;52.108;19.942;2022-11-20T07:09:18;100366.05;;;-3.12;71.81
60920;BME280;59039;52.108;19.942;2022-11-20T07:11:43;100367.06;;;-3.03;71.74
60920;BME280;59039;52.108;19.942;2022-11-20T07:14:08;100358.61;;;-2.92;71.78
60920;BME280;59039;52.108;19.942;2022-11-20T07:16:34;100354.95;;;-2.83;71.85
60920;BME280;59039;52.108;19.942;2022-11-20T07:18:59;100350.58;;;-2.72;71.90
60920;BME280;59039;52.108;19.942;2022-11-20T07:21:24;100348.55;;;-2.63;71.88
60920;BME280;59039;52.108;19.942;2022-11-20T07:23:49;100348.69;;;-2.55;71.78
60920;BME280;59039;52.108;19.942;2022-11-20T07:26:14;100344.88;;;-2.46;71.52
60920;BME280;59039;52.108;19.942;2022-11-20T07:28:39;100343.80;;;-2.38;71.37
60920;BME280;59039;52.108;19.942;2022-11-20T07:31:05;100342.23;;;-2.32;71.19
60920;BME280;59039;52.108;19.942;2022-11-20T07:33:31;100344.60;;;-2.26;70.91
60920;BME280;59039;52.108;19.942;2022-11-20T07:35:58;100339.41;;;-2.21;70.89
60920;BME280;59039;52.108;19.942;2022-11-20T07:38:23;100338.02;;;-2.18;70.83
60920;BME280;59039;52.108;19.942;2022-11-20T07:40:53;100337.44;;;-2.13;70.81
60920;BME280;59039;52.108;19.942;2022-11-20T07:43:18;100335.99;;;-2.09;70.79
60920;BME280;59039;52.108;19.942;2022-11-20T07:45:44;100333.39;;;-2.07;70.70
60920;BME280;59039;52.108;19.942;2022-11-20T07:48:09;100334.63;;;-2.03;70.63
60920;BME280;59039;52.108;19.942;2022-11-20T07:50:34;100335.69;;;-2.00;70.48
60920;BME280;59039;52.108;19.942;2022-11-20T07:53:01;100334.98;;;-1.96;70.49
60920;BME280;59039;52.108;19.942;2022-11-20T07:55:26;100334.46;;;-1.93;70.37
60920;BME280;59039;52.108;19.942;2022-11-20T07:57:55;100336.27;;;-1.90;70.43
60920;BME280;59039;52.108;19.942;2022-11-20T08:00:21;100340.02;;;-1.87;70.26
60920;BME280;59039;52.108;19.942;2022-11-20T08:02:46;100340.21;;;-1.84;70.20
60920;BME280;59039;52.108;19.942;2022-11-20T08:05:11;100340.02;;;-1.80;70.23
60920;BME280;59039;52.108;19.942;2022-11-20T08:07:42;100343.91;;;-1.76;70.10
60920;BME280;59039;52.108;19.942;2022-11-20T08:10:10;100343.86;;;-1.72;70.02
60920;BME280;59039;52.108;19.942;2022-11-20T08:12:35;100341.91;;;-1.68;70.07
60920;BME280;59039;52.108;19.942;2022-11-20T08:15:00;100336.56;;;-1.64;70.12
60920;BME280;59039;52.108;19.942;2022-11-20T08:17:26;100332.79;;;-1.60;69.90
60920;BME280;59039;52.108;19.942;2022-11-20T08:19:51;100326.92;;;-1.57;69.69
60920;BME280;59039;52.108;19.942;2022-11-20T08:22:16;100324.73;;;-1.53;69.55
60920;BME280;59039;52.108;19.942;2022-11-20T08:24:41;100318.65;;;-1.48;69.51
60920;BME280;59039;52.108;19.942;2022-11-20T08:27:07;100318.07;;;-1.44;69.35
60920;BME280;59039;52.108;19.942;2022-11-20T08:29:32;100312.48;;;-1.39;69.28
60920;BME280;59039;52.108;19.942;2022-11-20T08:31:57;100307.83;;;-1.35;69.35
60920;BME280;59039;52.108;19.942;2022-11-20T08:34:22;100300.14;;;-1.31;69.04
60920;BME280;59039;52.108;19.942;2022-11-20T08:36:47;100296.34;;;-1.26;69.03
60920;BME280;59039;52.108;19.942;2022-11-20T08:39:13;100291.29;;;-1.21;69.08
60920;BME280;59039;52.108;19.942;2022-11-20T08:41:38;100287.33;;;-1.17;68.93
60920;BME280;59039;52.108;19.942;2022-11-20T08:44:05;100287.23;;;-1.12;68.84
60920;BME280;59039;52.108;19.942;2022-11-20T08:46:33;100287.86;;;-1.08;68.61
60920;BME280;59039;52.108;19.942;2022-11-20T08:48:59;100283.85;;;-1.03;68.68
60920;BME280;59039;52.108;19.942;2022-11-20T08:51:24;100279.84;;;-0.97;68.41
60920;BME280;59039;52.108;19.942;2022-11-20T08:53:50;100277.77;;;-0.93;68.32
60920;BME280;59039;52.108;19.942;2022-11-20T08:56:16;100274.67;;;-0.88;68.19
60920;BME280;59039;52.108;19.942;2022-11-20T08:58:41;100275.45;;;-0.82;68.31
60920;BME280;59039;52.108;19.942;2022-11-20T09:01:06;100277.81;;;-0.77;68.10
60920;BME280;59039;52.108;19.942;2022-11-20T09:03:31;100275.21;;;-0.72;68.17
60920;BME280;59039;52.108;19.942;2022-11-20T09:06:01;100277.08;;;-0.67;67.89
60920;BME280;59039;52.108;19.942;2022-11-20T09:08:28;100277.05;;;-0.64;67.60
60920;BME280;59039;52.108;19.942;2022-11-20T09:10:55;100274.91;;;-0.60;67.40
60920;BME280;59039;52.108;19.942;2022-11-20T09:13:21;100274.19;;;-0.57;67.49
60920;BME280;59039;52.108;19.942;2022-11-20T09:15:47;100276.61;;;-0.53;67.44
60920;BME280;59039;52.108;19.942;2022-11-20T09:18:13;100274.48;;;-0.50;67.17
60920;BME280;59039;52.108;19.942;2022-11-20T09:20:38;100271.09;;;-0.47;67.28
60920;BME280;59039;52.108;19.942;2022-11-20T09:23:03;100267.55;;;-0.44;67.24
60920;BME280;59039;52.108;19.942;2022-11-20T09:25:28;100269.85;;;-0.40;67.26
60920;BME280;59039;52.108;19.942;2022-11-20T09:27:58;100267.00;;;-0.37;67.30
60920;BME280;59039;52.108;19.942;2022-11-20T09:30:23;100264.35;;;-0.34;67.17
60920;BME280;59039;52.108;19.942;2022-11-20T09:32:49;100264.24;;;-0.33;67.06
60920;BME280;59039;52.108;19.942;2022-11-20T09:35:14;100267.67;;;-0.30;66.92
60920;BME280;59039;52.108;19.942;2022-11-20T09:37:40;100262.14;;;-0.27;67.35
60920;BME280;59039;52.108;19.942;2022-11-20T09:40:06;100258.80;;;-0.25;66.94
60920;BME280;59039;52.108;19.942;2022-11-20T09:42:45;100256.64;;;-0.22;66.82
60920;BME280;59039;52.108;19.942;2022-11-20T09:45:30;100249.85;;;-0.18;66.46
60920;BME280;59039;52.108;19.942;2022-11-20T09:48:14;100247.92;;;-0.13;66.39
60920;BME280;59039;52.108;19.942;2022-11-20T09:50:45;100246.14;;;-0.09;66.34
60920;BME280;59039;52.108;19.942;2022-11-20T09:53:20;100245.17;;;-0.05;66.41
60920;BME280;59039;52.108;19.942;2022-11-20T09:55:50;100242.61;;;-0.01;66.00
60920;BME280;59039;52.108;19.942;2022-11-20T09:58:42;100239.70;;;0.03;66.41
60920;BME280;59039;52.108;19.942;2022-11-20T10:01:14;100235.30;;;0.08;66.87
60920;BME280;59039;52.108;19.942;2022-11-20T10:04:04;100232.20;;;0.12;66.22
60920;BME280;59039;52.108;19.942;2022-11-20T10:06:37;100232.73;;;0.18;65.68
60920;BME280;59039;52.108;19.942;2022-11-20T10:17:31;100230.78;;;0.38;65.44
60920;BME280;59039;52.108;19.942;2022-11-20T10:20:02;100232.58;;;0.45;65.35
60920;BME280;59039;52.108;19.942;2022-11-20T10:22:48;100235.62;;;0.50;65.53
60920;BME280;59039;52.108;19.942;2022-11-20T10:25:20;100231.89;;;0.55;64.19
60920;BME280;59039;52.108;19.942;2022-11-20T10:30:44;100227.00;;;0.65;63.34
60920;BME280;59039;52.108;19.942;2022-11-20T10:33:17;100225.31;;;0.69;63.41
60920;BME280;59039;52.108;19.942;2022-11-20T10:35:51;100223.64;;;0.73;62.77
60920;BME280;59039;52.108;19.942;2022-11-20T10:38:26;100215.55;;;0.77;62.80
60920;BME280;59039;52.108;19.942;2022-11-20T10:40:59;100211.58;;;0.80;62.62
60920;BME280;59039;52.108;19.942;2022-11-20T10:43:32;100212.27;;;0.83;62.35
60920;BME280;59039;52.108;19.942;2022-11-20T10:48:25;100210.41;;;0.90;63.04
60920;BME280;59039;52.108;19.942;2022-11-20T10:51:12;100213.45;;;0.93;63.30
60920;BME280;59039;52.108;19.942;2022-11-20T10:56:44;100203.08;;;0.99;63.00
60920;BME280;59039;52.108;19.942;2022-11-20T10:59:35;100198.65;;;1.01;62.43
60920;BME280;59039;52.108;19.942;2022-11-20T11:02:24;100198.47;;;1.04;62.79
60920;BME280;59039;52.108;19.942;2022-11-20T11:04:53;100197.98;;;1.06;62.52
60920;BME280;59039;52.108;19.942;2022-11-20T11:07:35;100195.88;;;1.08;62.40
60920;BME280;59039;52.108;19.942;2022-11-20T11:10:01;100193.10;;;1.10;62.19
60920;BME280;59039;52.108;19.942;2022-11-20T11:12:28;100193.33;;;1.12;62.92
60920;BME280;59039;52.108;19.942;2022-11-20T11:14:57;100189.14;;;1.13;62.68
60920;BME280;59039;52.108;19.942;2022-11-20T11:17:28;100188.17;;;1.14;62.37
60920;BME280;59039;52.108;19.942;2022-11-20T11:22:28;100186.58;;;1.17;62.60
60920;BME280;59039;52.108;19.942;2022-11-20T11:24:54;100184.21;;;1.17;62.05
60920;BME280;59039;52.108;19.942;2022-11-20T11:27:20;100179.00;;;1.18;61.75
60920;BME280;59039;52.108;19.942;2022-11-20T11:29:45;100179.48;;;1.19;62.20
60920;BME280;59039;52.108;19.942;2022-11-20T11:32:18;100182.11;;;1.19;62.35
60920;BME280;59039;52.108;19.942;2022-11-20T11:34:44;100179.98;;;1.19;62.20
60920;BME280;59039;52.108;19.942;2022-11-20T11:37:17;100177.48;;;1.19;62.41
60920;BME280;59039;52.108;19.942;2022-11-20T11:39:44;100181.10;;;1.19;62.14
60920;BME280;59039;52.108;19.942;2022-11-20T11:42:15;100177.68;;;1.19;61.79
60920;BME280;59039;52.108;19.942;2022-11-20T11:44:45;100178.48;;;1.20;62.26
60920;BME280;59039;52.108;19.942;2022-11-20T11:47:25;100176.14;;;1.21;61.98
60920;BME280;59039;52.108;19.942;2022-11-20T11:50:07;100172.45;;;1.20;62.21
60920;BME280;59039;52.108;19.942;2022-11-20T11:53:08;100172.77;;;1.18;61.89
60920;BME280;59039;52.108;19.942;2022-11-20T12:01:00;100165.35;;;1.17;61.69
60920;BME280;59039;52.108;19.942;2022-11-20T12:03:34;100161.59;;;1.17;61.59
60920;BME280;59039;52.108;19.942;2022-11-20T12:06:05;100160.80;;;1.18;60.93
60920;BME280;59039;52.108;19.942;2022-11-20T12:08:53;100159.11;;;1.19;61.49
60920;BME280;59039;52.108;19.942;2022-11-20T12:11:33;100161.16;;;1.21;61.54
60920;BME280;59039;52.108;19.942;2022-11-20T12:14:14;100158.71;;;1.22;61.21
60920;BME280;59039;52.108;19.942;2022-11-20T12:16:42;100155.04;;;1.24;60.86
60920;BME280;59039;52.108;19.942;2022-11-20T12:19:12;100149.02;;;1.26;61.01
60920;BME280;59039;52.108;19.942;2022-11-20T12:24:46;100140.46;;;1.29;60.57
60920;BME280;59039;52.108;19.942;2022-11-20T12:27:40;100134.13;;;1.30;60.86
60920;BME280;59039;52.108;19.942;2022-11-20T12:30:11;100136.02;;;1.31;60.78
60920;BME280;59039;52.108;19.942;2022-11-20T12:46:58;100123.46;;;1.35;60.02
60920;BME280;59039;52.108;19.942;2022-11-20T12:49:53;100121.38;;;1.36;60.47
60920;BME280;59039;52.108;19.942;2022-11-20T12:52:38;100115.86;;;1.36;60.42
60920;BME280;59039;52.108;19.942;2022-11-20T12:55:22;100114.63;;;1.36;60.40
60920;BME280;59039;52.108;19.942;2022-11-20T12:57:55;100114.77;;;1.37;60.18
60920;BME280;59039;52.108;19.942;2022-11-20T13:00:23;100114.18;;;1.37;60.09
60920;BME280;59039;52.108;19.942;2022-11-20T13:03:15;100109.48;;;1.38;59.86
60920;BME280;59039;52.108;19.942;2022-11-20T13:06:05;100110.30;;;1.39;58.93
60920;BME280;59039;52.108;19.942;2022-11-20T13:08:37;100102.26;;;1.39;59.19
60920;BME280;59039;52.108;19.942;2022-11-20T13:11:14;100098.54;;;1.39;59.80
60920;BME280;59039;52.108;19.942;2022-11-20T13:16:48;100097.83;;;1.39;60.66
60920;BME280;59039;52.108;19.942;2022-11-20T13:19:16;100097.63;;;1.37;60.65
60920;BME280;59039;52.108;19.942;2022-11-20T13:21:44;100093.79;;;1.35;60.55
60920;BME280;59039;52.108;19.942;2022-11-20T13:26:45;100089.29;;;1.36;60.58
60920;BME280;59039;52.108;19.942;2022-11-20T13:29:18;100086.77;;;1.36;60.78
60920;BME280;59039;52.108;19.942;2022-11-20T13:31:44;100082.67;;;1.36;61.19
60920;BME280;59039;52.108;19.942;2022-11-20T13:34:23;100085.55;;;1.33;60.86
60920;BME280;59039;52.108;19.942;2022-11-20T13:36:51;100083.40;;;1.31;60.53
60920;BME280;59039;52.108;19.942;2022-11-20T13:39:36;100077.50;;;1.31;60.77
60920;BME280;59039;52.108;19.942;2022-11-20T13:42:26;100068.88;;;1.31;60.39
60920;BME280;59039;52.108;19.942;2022-11-20T13:44:54;100068.73;;;1.31;60.48